createdAt,value
2022-10-16T00:02:17.769Z,6.50
2022-10-16T00:07:21.964Z,5.28
2022-10-16T00:12:25.099Z,9.63
2022-10-16T00:17:27.996Z,4.78
2022-10-16T00:22:32.306Z,4.63
2022-10-16T00:27:35.736Z,7.30
2022-10-16T00:32:38.463Z,6.45
2022-10-16T00:37:42.600Z,7.75
2022-10-16T00:42:45.366Z,13.30
2022-10-16T00:47:52.378Z,5.93
2022-10-16T00:52:57.914Z,8.15
2022-10-16T00:58:01.604Z,5.28
2022-10-16T01:03:05.065Z,4.63
2022-10-16T01:08:15.781Z,6.85
2022-10-16T01:13:23.316Z,4.75
2022-10-16T01:18:33.437Z,8.82
2022-10-16T01:23:51.504Z,5.80
2022-10-16T01:28:59.437Z,7.45
2022-10-16T01:34:06.496Z,6.80
2022-10-16T01:39:12.696Z,7.00
2022-10-16T01:44:22.069Z,6.30
2022-10-16T01:49:28.438Z,5.97
2022-10-16T01:54:34.201Z,7.43
2022-10-16T01:59:45.271Z,5.57
2022-10-16T02:04:51.696Z,6.35
2022-10-16T02:09:54.532Z,7.10
2022-10-16T02:14:58.956Z,8.32
2022-10-16T02:20:02.471Z,8.02
2022-10-16T02:25:10.457Z,6.28
2022-10-16T02:30:21.220Z,5.97
2022-10-16T02:35:25.653Z,6.78
2022-10-16T02:40:29.670Z,5.75
2022-10-16T02:45:34.128Z,7.28
2022-10-16T02:50:36.966Z,9.57
2022-10-16T02:55:39.756Z,9.30
2022-10-16T03:00:44.142Z,9.50
2022-10-16T03:05:47.527Z,5.95
2022-10-16T03:10:50.300Z,8.93
2022-10-16T03:20:56.992Z,8.32
2022-10-16T03:26:00.006Z,9.63
2022-10-16T03:31:04.181Z,8.25
2022-10-16T03:36:07.291Z,6.55
2022-10-16T03:41:10.124Z,11.23
2022-10-16T03:46:14.281Z,4.78
2022-10-16T03:51:17.022Z,6.63
2022-10-16T04:01:23.728Z,4.93
2022-10-16T04:06:26.480Z,4.75
2022-10-16T04:16:33.423Z,4.70
2022-10-16T04:21:36.190Z,6.20
2022-10-16T04:31:43.288Z,7.90
2022-10-16T04:36:46.211Z,6.07
2022-10-16T04:41:48.920Z,5.35
2022-10-16T04:46:53.756Z,3.03
2022-10-16T04:51:56.514Z,4.25
2022-10-16T04:56:59.648Z,5.10
2022-10-16T05:02:03.834Z,6.20
2022-10-16T05:07:06.556Z,5.90
2022-10-16T05:17:13.311Z,2.70
2022-10-16T05:22:16.034Z,3.90
2022-10-16T05:32:24.756Z,3.40
2022-10-16T05:37:27.934Z,5.40
2022-10-16T05:42:30.943Z,5.35
2022-10-16T05:47:35.050Z,3.05
2022-10-16T05:52:37.781Z,2.60
2022-10-16T06:02:44.946Z,4.13
2022-10-16T06:07:47.682Z,3.97
2022-10-16T06:17:54.393Z,3.90
2022-10-16T06:22:57.380Z,1.73
2022-10-16T06:28:00.272Z,4.35
2022-10-16T06:33:04.541Z,3.40
2022-10-16T06:38:07.296Z,7.50
2022-10-16T06:48:14.181Z,1.40
2022-10-16T06:53:16.930Z,1.70
2022-10-16T06:58:23.919Z,1.60
2022-10-16T07:03:29.485Z,3.42
2022-10-16T07:08:34.413Z,1.15
2022-10-16T07:13:38.072Z,2.00
2022-10-16T07:18:44.695Z,2.95
2022-10-16T07:23:51.898Z,2.35
2022-10-16T07:28:55.034Z,1.90
2022-10-16T07:34:00.578Z,1.48
2022-10-16T07:39:03.815Z,1.15
2022-10-16T07:44:07.650Z,3.08
2022-10-16T07:49:12.078Z,2.55
2022-10-16T07:54:14.827Z,1.55
2022-10-16T07:59:17.977Z,0.90
2022-10-16T08:04:22.153Z,5.78
2022-10-16T08:09:24.897Z,1.65
2022-10-16T08:14:27.844Z,3.20
2022-10-16T08:19:35.232Z,2.78
2022-10-16T08:24:38.118Z,2.20
2022-10-16T08:29:40.876Z,1.50
2022-10-16T08:34:44.999Z,1.58
2022-10-16T08:39:47.737Z,1.58
2022-10-16T08:45:25.198Z,1.27
2022-10-16T08:50:31.685Z,3.83
2022-10-16T08:55:40.736Z,4.22
2022-10-16T09:00:45.847Z,1.35
2022-10-16T09:06:02.965Z,1.50
2022-10-16T09:11:12.576Z,1.95
2022-10-16T09:16:22.779Z,2.42
2022-10-16T09:21:30.832Z,3.67
2022-10-16T09:26:33.607Z,6.30
2022-10-16T09:31:38.588Z,1.70
2022-10-16T09:36:46.839Z,2.20
2022-10-16T09:41:50.119Z,2.13
2022-10-16T09:47:03.528Z,2.63
2022-10-16T09:52:13.554Z,3.63
2022-10-16T09:57:16.696Z,2.85
2022-10-16T10:02:21.841Z,2.35
2022-10-16T10:07:29.396Z,2.15
2022-10-16T10:12:36.690Z,3.00
2022-10-16T10:17:48.447Z,6.00
2022-10-16T10:22:52.704Z,1.13
2022-10-16T10:28:11.971Z,2.47
2022-10-16T10:33:26.888Z,4.97
2022-10-16T10:38:40.312Z,4.05
2022-10-16T10:43:58.457Z,2.22
2022-10-16T10:49:17.055Z,3.20
2022-10-16T10:54:29.752Z,3.35
2022-10-16T10:59:45.649Z,2.38
2022-10-16T11:04:59.933Z,2.15
2022-10-16T11:10:14.939Z,1.15
2022-10-16T11:15:21.624Z,1.58
2022-10-16T11:20:27.889Z,2.15
2022-10-16T11:25:33.776Z,2.47
2022-10-16T11:30:45.303Z,3.03
2022-10-16T11:35:53.485Z,0.82
2022-10-16T11:41:05.280Z,0.70
2022-10-16T11:46:13.859Z,6.53
2022-10-16T11:51:23.349Z,2.90
2022-10-16T11:56:28.525Z,5.63
2022-10-16T12:01:40.490Z,1.35
2022-10-16T12:06:46.267Z,1.13
2022-10-16T12:11:50.548Z,2.35
2022-10-16T12:16:56.153Z,3.35
2022-10-16T12:22:00.430Z,7.00
2022-10-16T12:27:06.123Z,2.90
2022-10-16T12:32:45.782Z,3.47
2022-10-16T12:37:51.316Z,1.48
2022-10-16T12:42:55.681Z,2.38
2022-10-16T12:47:59.157Z,2.30
2022-10-16T12:53:03.807Z,2.00
2022-10-16T12:58:21.230Z,1.90
2022-10-16T13:03:50.218Z,1.73
2022-10-16T13:09:28.701Z,2.83
2022-10-16T13:14:56.323Z,1.85
2022-10-16T13:20:09.564Z,1.92
2022-10-16T13:25:24.449Z,3.40
2022-10-16T13:30:31.233Z,1.67
2022-10-16T13:35:35.923Z,1.50
2022-10-16T13:40:38.755Z,2.33
2022-10-16T13:45:42.993Z,1.50
2022-10-16T13:50:45.733Z,2.30
2022-10-16T13:55:48.466Z,2.58
2022-10-16T14:00:58.673Z,2.17
2022-10-16T14:06:03.856Z,1.63
2022-10-16T14:11:06.688Z,1.92
2022-10-16T14:16:12.902Z,2.25
2022-10-16T14:21:17.955Z,2.50
2022-10-16T14:26:23.846Z,1.50
2022-10-16T14:31:31.161Z,2.00
2022-10-16T14:36:35.954Z,1.33
2022-10-16T14:41:46.032Z,1.30
2022-10-16T14:46:50.417Z,1.17
2022-10-16T14:51:53.476Z,2.35
2022-10-16T14:56:58.632Z,0.77
2022-10-16T15:02:23.198Z,3.15
2022-10-16T15:07:26.803Z,1.30
2022-10-16T15:12:29.749Z,1.05
2022-10-16T15:17:33.867Z,1.45
2022-10-16T15:22:36.595Z,2.17
2022-10-16T15:27:41.186Z,2.25
2022-10-16T15:32:45.313Z,1.48
2022-10-16T15:37:49.071Z,4.57
2022-10-16T15:42:52.120Z,1.17
2022-10-16T15:47:56.220Z,2.53
2022-10-16T15:52:59.141Z,11.77
2022-10-16T15:58:01.958Z,14.70
2022-10-16T16:03:06.320Z,23.85
2022-10-16T16:08:09.302Z,15.65
2022-10-16T16:13:12.434Z,14.48
2022-10-16T16:18:16.550Z,13.35
2022-10-16T16:23:20.138Z,4.68
2022-10-16T16:28:22.981Z,11.50
2022-10-16T16:33:27.740Z,12.70
2022-10-16T16:38:32.266Z,10.35
2022-10-16T16:43:35.094Z,8.60
2022-10-16T16:48:40.209Z,9.75
2022-10-16T16:53:43.497Z,10.40
2022-10-16T16:58:47.279Z,7.03
2022-10-16T17:03:53.593Z,3.85
2022-10-16T17:08:57.009Z,7.65
2022-10-16T17:14:01.774Z,6.13
2022-10-16T17:19:08.260Z,4.32
2022-10-16T17:24:11.268Z,4.40
2022-10-16T17:29:14.619Z,5.65
2022-10-16T17:34:19.694Z,4.95
2022-10-16T17:39:23.300Z,4.63
2022-10-16T17:44:26.239Z,6.15
2022-10-16T17:49:30.547Z,4.60
2022-10-16T17:54:33.410Z,5.03
2022-10-16T17:59:36.246Z,5.95
2022-10-16T18:04:40.921Z,4.25
2022-10-16T18:10:09.844Z,4.10
2022-10-16T18:15:08.417Z,3.33
2022-10-16T18:20:13.700Z,4.70
2022-10-16T18:25:16.758Z,4.18
2022-10-16T18:30:19.697Z,4.10
2022-10-16T18:35:24.099Z,4.40
2022-10-16T18:40:27.169Z,5.28
2022-10-16T18:45:30.044Z,4.15
2022-10-16T18:50:34.474Z,4.50
2022-10-16T18:55:37.364Z,4.05
2022-10-16T19:00:40.232Z,5.22
2022-10-16T19:05:46.354Z,5.80
2022-10-16T19:10:49.206Z,5.45
2022-10-16T19:15:58.201Z,6.00
2022-10-16T19:26:15.957Z,4.47
2022-10-16T19:31:20.985Z,6.95
2022-10-16T19:36:27.235Z,5.55
2022-10-16T19:41:31.569Z,4.85
2022-10-16T19:46:35.160Z,5.95
2022-10-16T19:51:40.069Z,4.68
2022-10-16T19:56:43.306Z,3.85
2022-10-16T20:01:47.762Z,3.58
2022-10-16T20:06:51.999Z,8.27
2022-10-16T20:11:54.725Z,4.57
2022-10-16T20:16:57.628Z,5.22
2022-10-16T20:22:01.978Z,4.53
2022-10-16T20:27:04.886Z,7.20
2022-10-16T20:32:07.728Z,5.65
2022-10-16T20:37:11.920Z,4.07
2022-10-16T20:42:14.888Z,5.60
2022-10-16T20:47:17.821Z,8.27
2022-10-16T20:52:22.078Z,5.07
2022-10-16T20:57:25.199Z,10.05
2022-10-16T21:02:28.144Z,5.40
2022-10-16T21:07:32.334Z,6.40
2022-10-16T21:12:35.279Z,5.80
2022-10-16T21:17:38.053Z,6.57
2022-10-16T21:22:42.274Z,6.28
2022-10-16T21:27:46.079Z,8.30
2022-10-16T21:32:48.821Z,9.65
2022-10-16T21:37:52.949Z,8.13
2022-10-16T21:42:55.682Z,5.80
2022-10-16T21:47:58.504Z,7.15
2022-10-16T21:53:02.618Z,6.53
2022-10-16T21:58:05.388Z,8.43
2022-10-16T22:03:08.215Z,3.80
2022-10-16T22:08:12.347Z,5.43
2022-10-16T22:13:15.068Z,5.75
2022-10-16T22:18:17.804Z,6.40
2022-10-16T22:23:22.311Z,4.55
2022-10-16T22:28:25.181Z,3.55
2022-10-16T22:33:27.993Z,6.13
2022-10-16T22:38:32.799Z,4.15
2022-10-16T22:43:37.297Z,4.75
2022-10-16T22:48:40.379Z,6.22
2022-10-16T22:53:44.853Z,4.97
2022-10-16T22:58:47.669Z,5.45
2022-10-16T23:03:51.148Z,4.50
2022-10-16T23:08:56.957Z,5.90
2022-10-16T23:13:59.810Z,6.35
2022-10-16T23:19:02.652Z,6.35
2022-10-16T23:24:07.535Z,6.30
2022-10-16T23:29:10.603Z,7.15
2022-10-16T23:34:13.406Z,6.28
2022-10-16T23:39:17.841Z,7.00
2022-10-16T23:44:20.786Z,8.05
2022-10-16T23:49:23.664Z,7.40
2022-10-16T23:54:27.828Z,6.05
2022-10-16T23:59:30.566Z,6.53
